Time;durP1;ratioP1;P1;durP2;ratioP2;P2;SDS_P1;SDS_P2;PMS_P1;PMS_P2;Temp;Humidity;BMP_temperature;BMP_pressure;BME280_temperature;BME280_humidity;BME280_pressure;Samples;Min_cycle;Max_cycle;Signal;HPM_P1;HPM_P2
2021/11/27 00:00:30;;;;;;;6.90;6.60;;;4.50;99.90;;;;;;5031550;28;20195;-66
2021/11/27 00:02:57;;;;;;;6.90;6.60;;;4.40;99.90;;;;;;5043941;28;20210;-67
2021/11/27 00:05:24;;;;;;;7.30;7.00;;;4.40;99.90;;;;;;5051431;28;20171;-66
2021/11/27 00:07:51;;;;;;;7.20;6.80;;;4.40;99.90;;;;;;5038633;28;20254;-66
2021/11/27 00:10:20;;;;;;;7.17;6.73;;;4.40;99.90;;;;;;5031102;28;20180;-65
2021/11/27 00:12:47;;;;;;;6.70;6.40;;;4.40;99.90;;;;;;5042881;28;20262;-67
2021/11/27 00:15:14;;;;;;;6.87;6.57;;;4.40;99.90;;;;;;5051611;28;20167;-67
2021/11/27 00:17:41;;;;;;;7.07;6.67;;;4.50;99.90;;;;;;5040196;28;20202;-67
2021/11/27 00:20:10;;;;;;;6.60;6.30;;;4.50;99.90;;;;;;5031618;28;20175;-66
2021/11/27 00:22:37;;;;;;;6.80;6.50;;;4.50;99.90;;;;;;5040826;28;20204;-67
2021/11/27 00:25:05;;;;;;;6.90;6.60;;;4.50;99.90;;;;;;5050958;28;20174;-67
2021/11/27 00:27:32;;;;;;;6.80;6.50;;;4.50;99.90;;;;;;5040564;28;20195;-67
2021/11/27 00:29:58;;;;;;;7.10;6.80;;;4.60;99.90;;;;;;5031399;28;20199;-65
2021/11/27 00:32:24;;;;;;;7.00;6.70;;;4.60;99.90;;;;;;5038999;28;20186;-65
2021/11/27 00:34:49;;;;;;;6.90;6.60;;;4.60;99.90;;;;;;5050861;28;20174;-67
2021/11/27 00:37:15;;;;;;;6.90;6.60;;;4.60;99.90;;;;;;5044575;28;20183;-66
2021/11/27 00:39:41;;;;;;;6.90;6.60;;;4.60;99.90;;;;;;5041508;28;20656;-67
2021/11/27 00:42:06;;;;;;;6.60;6.30;;;4.60;99.90;;;;;;5045933;28;20262;-67
2021/11/27 00:44:32;;;;;;;7.00;6.70;;;4.60;99.90;;;;;;5030506;28;20625;-66
2021/11/27 00:46:58;;;;;;;6.90;6.60;;;4.70;99.90;;;;;;5033837;28;20190;-65
2021/11/27 00:49:24;;;;;;;6.73;6.43;;;4.70;99.90;;;;;;5051112;28;20659;-67
2021/11/27 00:51:50;;;;;;;7.43;7.13;;;4.70;99.90;;;;;;5049166;28;20252;-63
2021/11/27 00:54:17;;;;;;;7.63;7.23;;;4.70;99.90;;;;;;5030096;28;20633;-67
2021/11/27 00:56:43;;;;;;;7.70;7.40;;;4.70;99.90;;;;;;5031692;28;20183;-67
2021/11/27 00:59:09;;;;;;;7.83;7.53;;;4.70;99.90;;;;;;5049576;28;20187;-67
2021/11/27 01:01:35;;;;;;;7.47;7.17;;;4.70;99.90;;;;;;5050677;28;20171;-66
2021/11/27 01:04:02;;;;;;;6.90;6.60;;;4.70;99.90;;;;;;5030651;28;20179;-66
2021/11/27 01:06:28;;;;;;;6.90;6.60;;;4.70;99.90;;;;;;5030769;28;20237;-66
2021/11/27 01:08:57;;;;;;;6.40;6.17;;;4.80;99.90;;;;;;5048570;28;20195;-66
2021/11/27 01:11:33;;;;;;;6.70;6.40;;;4.80;99.90;;;;;;5051205;28;20652;-66
2021/11/27 01:14:03;;;;;;;6.50;6.30;;;4.80;99.90;;;;;;5031916;28;20176;-66
2021/11/27 01:16:32;;;;;;;6.67;6.37;;;4.80;99.90;;;;;;5033650;28;20180;-66
2021/11/27 01:18:58;;;;;;;6.50;6.20;;;4.80;99.90;;;;;;5053549;28;20211;-66
2021/11/27 01:21:27;;;;;;;6.60;6.33;;;4.90;99.90;;;;;;5054724;28;20182;-66
2021/11/27 01:23:55;;;;;;;7.10;6.80;;;4.90;99.90;;;;;;5035763;28;20221;-66
2021/11/27 01:26:21;;;;;;;6.57;6.27;;;4.90;99.90;;;;;;5034272;28;20381;-66
2021/11/27 01:28:47;;;;;;;6.80;6.50;;;4.90;99.90;;;;;;5051435;28;20702;-66
2021/11/27 01:31:14;;;;;;;6.83;6.53;;;4.90;99.90;;;;;;5054533;28;20167;-66
2021/11/27 01:33:39;;;;;;;6.53;6.23;;;4.90;99.90;;;;;;5037979;28;20236;-66
2021/11/27 01:36:06;;;;;;;6.90;6.60;;;4.90;99.90;;;;;;5034569;28;20197;-66
2021/11/27 01:38:34;;;;;;;6.60;6.30;;;4.90;99.90;;;;;;5041233;28;20204;-66
2021/11/27 01:41:00;;;;;;;6.33;6.13;;;4.90;99.90;;;;;;5044597;28;20182;-66
2021/11/27 01:43:26;;;;;;;6.70;6.40;;;4.90;99.90;;;;;;5054029;28;20182;-66
2021/11/27 01:45:53;;;;;;;6.93;6.63;;;4.90;99.90;;;;;;5045027;28;20543;-66
2021/11/27 01:48:21;;;;;;;7.00;6.70;;;4.90;99.90;;;;;;5050467;28;20672;-66
2021/11/27 01:50:55;;;;;;;6.90;6.60;;;4.80;99.90;;;;;;5054080;28;20244;-66
2021/11/27 01:53:22;;;;;;;7.43;7.13;;;4.90;99.90;;;;;;5053070;28;20202;-66
2021/11/27 01:55:51;;;;;;;7.27;6.97;;;4.90;99.90;;;;;;5047575;28;20924;-66
2021/11/27 01:58:17;;;;;;;6.80;6.50;;;4.90;99.90;;;;;;5044145;28;20199;-66
2021/11/27 02:00:45;;;;;;;6.17;5.97;;;4.90;99.90;;;;;;5048565;28;20254;-66
2021/11/27 02:03:11;;;;;;;6.70;6.40;;;4.90;99.90;;;;;;5033877;28;20191;-66
2021/11/27 02:05:37;;;;;;;6.70;6.40;;;5.00;99.90;;;;;;5036913;28;20179;-67
2021/11/27 02:08:03;;;;;;;6.87;6.57;;;5.00;99.90;;;;;;5053624;28;20207;-66
2021/11/27 02:10:29;;;;;;;6.83;6.53;;;5.00;99.90;;;;;;5050572;28;20178;-66
2021/11/27 02:12:55;;;;;;;7.30;7.00;;;5.00;99.90;;;;;;5033509;28;20537;-66
2021/11/27 02:15:21;;;;;;;7.53;7.20;;;5.00;99.90;;;;;;5034300;28;20167;-66
2021/11/27 02:17:48;;;;;;;7.17;6.87;;;5.00;99.90;;;;;;5053451;28;20183;-66
2021/11/27 02:20:14;;;;;;;7.00;6.70;;;5.00;99.90;;;;;;5053006;28;20175;-66
2021/11/27 02:22:40;;;;;;;7.20;6.90;;;5.00;99.90;;;;;;5042311;28;20634;-66
2021/11/27 02:25:12;;;;;;;7.07;6.77;;;5.10;99.90;;;;;;5053359;28;20206;-66
2021/11/27 02:27:42;;;;;;;7.00;6.70;;;5.10;99.90;;;;;;5052064;28;20202;-66
2021/11/27 02:30:08;;;;;;;6.97;6.67;;;5.00;99.90;;;;;;5053771;28;20178;-66
2021/11/27 02:32:34;;;;;;;7.20;6.90;;;5.00;99.90;;;;;;5033106;28;20175;-66
2021/11/27 02:35:00;;;;;;;7.40;7.00;;;5.00;99.90;;;;;;5033433;28;20170;-66
2021/11/27 02:37:25;;;;;;;7.23;6.93;;;5.10;99.90;;;;;;5050654;28;20183;-66
2021/11/27 02:39:51;;;;;;;7.37;6.97;;;5.00;99.90;;;;;;5053047;28;20190;-66
2021/11/27 02:42:17;;;;;;;7.40;7.00;;;5.00;99.90;;;;;;5035889;28;20798;-66
2021/11/27 02:44:43;;;;;;;7.37;7.00;;;5.00;99.90;;;;;;5033412;28;20194;-66
2021/11/27 02:47:09;;;;;;;7.70;7.00;;;4.90;99.90;;;;;;5048323;28;20202;-66
2021/11/27 02:49:35;;;;;;;7.37;7.07;;;4.90;99.90;;;;;;5052801;28;20252;-66
2021/11/27 02:52:00;;;;;;;8.33;7.83;;;4.90;99.90;;;;;;5033406;28;20184;-66
2021/11/27 02:54:26;;;;;;;9.37;8.87;;;4.80;99.90;;;;;;5032693;28;20178;-66
2021/11/27 02:56:52;;;;;;;9.30;8.70;;;4.80;99.90;;;;;;5050181;28;20225;-66
2021/11/27 02:59:21;;;;;;;9.07;8.37;;;4.70;99.90;;;;;;5052801;28;20206;-66
2021/11/27 03:01:52;;;;;;;7.73;7.33;;;4.50;99.90;;;;;;5035509;28;20748;-66
2021/11/27 03:04:18;;;;;;;7.67;7.27;;;4.40;99.90;;;;;;5032728;28;20587;-66
2021/11/27 03:06:44;;;;;;;8.27;7.87;;;4.30;99.90;;;;;;5048098;28;20202;-66
2021/11/27 03:09:15;;;;;;;7.97;7.57;;;4.20;99.90;;;;;;5052591;28;20190;-66
2021/11/27 03:11:41;;;;;;;7.27;6.87;;;4.10;99.90;;;;;;5036149;28;20190;-66
2021/11/27 03:14:07;;;;;;;7.43;7.03;;;3.90;99.90;;;;;;5032528;28;20175;-66
2021/11/27 03:16:33;;;;;;;7.57;7.17;;;3.90;99.90;;;;;;5045985;28;20187;-66
2021/11/27 03:19:00;;;;;;;7.80;7.40;;;3.80;99.90;;;;;;5052103;28;20207;-66
2021/11/27 03:21:26;;;;;;;7.73;7.33;;;3.70;99.90;;;;;;5038601;28;20547;-66
2021/11/27 03:23:52;;;;;;;7.40;7.00;;;3.70;99.90;;;;;;5031818;28;20171;-66
2021/11/27 03:26:18;;;;;;;7.57;7.17;;;3.70;99.90;;;;;;5043876;28;20205;-66
2021/11/27 03:28:45;;;;;;;8.30;7.80;;;3.70;99.90;;;;;;5051591;28;20203;-66
2021/11/27 03:31:11;;;;;;;7.90;7.43;;;3.70;99.90;;;;;;5040688;28;20179;-66
2021/11/27 03:33:37;;;;;;;9.47;8.87;;;3.70;99.90;;;;;;5032096;28;20171;-66
2021/11/27 03:36:05;;;;;;;7.97;7.47;;;3.70;99.90;;;;;;5033552;28;20634;-66
2021/11/27 03:38:31;;;;;;;9.07;7.60;;;3.80;99.90;;;;;;5031109;28;20273;-66
2021/11/27 03:40:57;;;;;;;8.97;8.37;;;3.80;99.90;;;;;;5039939;28;20205;-66
2021/11/27 03:43:23;;;;;;;8.67;7.97;;;3.90;99.90;;;;;;5051720;28;20543;-67
2021/11/27 03:45:48;;;;;;;8.37;7.87;;;3.90;99.90;;;;;;5044511;28;20171;-67
2021/11/27 03:48:28;;;;;;;8.57;7.93;;;3.90;99.90;;;;;;5038247;28;20211;-67
2021/11/27 03:50:54;;;;;;;7.80;7.40;;;4.00;99.90;;;;;;5052145;28;20538;-67
2021/11/27 03:53:30;;;;;;;7.77;7.37;;;4.00;99.90;;;;;;5045021;28;20171;-67
2021/11/27 03:55:58;;;;;;;8.60;8.00;;;4.00;99.90;;;;;;5031802;28;20246;-66
2021/11/27 03:58:24;;;;;;;9.80;9.10;;;4.00;99.90;;;;;;5037814;28;20485;-67
2021/11/27 04:00:51;;;;;;;9.17;8.57;;;4.00;99.90;;;;;;5033992;28;20240;-66
2021/11/27 04:03:19;;;;;;;8.60;8.10;;;4.00;99.90;;;;;;5051294;28;20179;-66
2021/11/27 04:05:57;;;;;;;8.63;8.13;;;4.00;99.90;;;;;;5051442;28;20543;-65
2021/11/27 04:08:23;;;;;;;8.93;8.30;;;4.10;99.90;;;;;;5031379;28;20199;-65
2021/11/27 04:10:50;;;;;;;9.57;8.87;;;4.00;99.90;;;;;;5031440;28;20207;-66
2021/11/27 04:13:16;;;;;;;9.37;8.80;;;4.10;99.90;;;;;;5035595;28;20187;-66
2021/11/27 04:15:42;;;;;;;9.03;8.40;;;4.10;99.90;;;;;;5031481;28;20246;-66
2021/11/27 04:18:08;;;;;;;9.23;8.63;;;4.20;99.90;;;;;;5048939;28;20250;-66
2021/11/27 04:20:34;;;;;;;8.60;8.10;;;4.10;99.90;;;;;;5050985;28;20178;-66
2021/11/27 04:23:00;;;;;;;9.37;8.63;;;4.10;99.90;;;;;;5033993;28;20180;-66
2021/11/27 04:25:27;;;;;;;8.53;8.03;;;4.00;99.90;;;;;;5030879;28;20179;-66
2021/11/27 04:27:52;;;;;;;9.17;8.57;;;4.00;99.90;;;;;;5045784;28;20206;-66
2021/11/27 04:30:21;;;;;;;9.43;8.83;;;4.10;99.90;;;;;;5051295;28;20257;-66
2021/11/27 04:32:48;;;;;;;10.60;9.90;;;4.10;99.90;;;;;;5035087;28;20211;-66
2021/11/27 04:35:15;;;;;;;10.60;9.90;;;4.20;99.90;;;;;;5031112;28;20195;-66
2021/11/27 04:37:41;;;;;;;9.50;8.90;;;4.10;99.90;;;;;;5044436;28;20190;-66
2021/11/27 04:40:07;;;;;;;9.40;8.70;;;4.20;99.90;;;;;;5051364;28;20202;-66
2021/11/27 04:42:34;;;;;;;9.80;9.10;;;4.20;99.90;;;;;;5038038;28;20551;-66
2021/11/27 04:45:00;;;;;;;8.97;8.17;;;4.20;99.90;;;;;;5031424;28;20211;-66
2021/11/27 04:47:26;;;;;;;9.27;8.67;;;4.20;99.90;;;;;;5042155;28;20638;-66
2021/11/27 04:49:52;;;;;;;8.97;8.37;;;4.10;99.90;;;;;;5053186;28;20220;-66
2021/11/27 04:52:18;;;;;;;9.00;8.40;;;4.10;99.90;;;;;;5044481;28;20668;-66
2021/11/27 04:54:43;;;;;;;10.33;9.53;;;4.10;99.90;;;;;;5035122;28;20168;-66
2021/11/27 04:57:09;;;;;;;9.50;8.80;;;4.00;99.90;;;;;;5043576;28;20178;-66
2021/11/27 04:59:35;;;;;;;10.23;9.23;;;4.00;99.90;;;;;;5054976;28;20187;-66
2021/11/27 05:02:01;;;;;;;10.47;9.43;;;4.00;99.90;;;;;;5046805;28;20186;-66
2021/11/27 05:04:28;;;;;;;10.57;9.97;;;4.00;99.90;;;;;;5035012;28;20182;-66
2021/11/27 05:06:55;;;;;;;9.80;9.20;;;4.00;99.90;;;;;;5040924;28;20672;-66
2021/11/27 05:09:21;;;;;;;9.07;8.47;;;4.00;99.90;;;;;;5054879;28;20216;-66
2021/11/27 05:11:46;;;;;;;9.43;8.73;;;4.00;99.90;;;;;;5049147;28;20175;-66
2021/11/27 05:14:12;;;;;;;9.73;9.13;;;4.00;99.90;;;;;;5034692;28;20302;-66
2021/11/27 05:16:38;;;;;;;9.87;9.27;;;3.90;99.90;;;;;;5038010;28;20218;-66
2021/11/27 05:19:03;;;;;;;9.70;9.00;;;3.90;99.90;;;;;;5054674;28;20195;-66
2021/11/27 05:21:29;;;;;;;9.40;8.80;;;3.90;99.90;;;;;;5051787;28;20170;-66
2021/11/27 05:23:55;;;;;;;9.93;9.23;;;3.90;99.90;;;;;;5034529;28;20175;-66
2021/11/27 05:26:21;;;;;;;9.93;9.23;;;3.80;99.90;;;;;;5035219;28;20199;-66
2021/11/27 05:28:47;;;;;;;9.63;9.03;;;3.90;99.90;;;;;;5054100;28;20214;-66
2021/11/27 05:31:15;;;;;;;9.57;8.97;;;3.90;99.90;;;;;;5054116;28;20167;-66
2021/11/27 05:36:11;;;;;;;9.33;8.77;;;3.90;99.90;;;;;;5034628;28;20581;-66
2021/11/27 05:38:36;;;;;;;9.37;8.77;;;3.80;99.90;;;;;;5053247;28;20201;-65
2021/11/27 05:41:03;;;;;;;10.30;9.50;;;3.70;99.90;;;;;;5054380;28;20257;-66
2021/11/27 05:43:29;;;;;;;9.40;8.80;;;3.60;99.90;;;;;;5035071;28;20171;-66
2021/11/27 05:45:54;;;;;;;9.20;8.60;;;3.60;99.90;;;;;;5034327;28;20163;-67
2021/11/27 05:48:20;;;;;;;10.87;10.00;;;3.50;99.90;;;;;;5046341;28;20206;-66
2021/11/27 05:50:45;;;;;;;11.60;10.70;;;3.40;99.90;;;;;;5034230;28;20171;-66
2021/11/27 05:53:13;;;;;;;12.17;11.27;;;3.30;99.90;;;;;;5034001;28;20178;-66
2021/11/27 05:55:39;;;;;;;13.07;12.27;;;3.20;99.90;;;;;;5047921;28;20178;-66
2021/11/27 05:58:05;;;;;;;12.10;11.23;;;3.20;99.90;;;;;;5051374;28;20218;-66
2021/11/27 06:00:31;;;;;;;11.07;10.37;;;3.30;99.90;;;;;;5033388;28;20250;-66
2021/11/27 06:02:56;;;;;;;11.53;10.73;;;3.30;99.90;;;;;;5033962;28;20203;-67
2021/11/27 06:05:28;;;;;;;12.00;11.07;;;3.30;99.90;;;;;;5053302;28;20199;-67
2021/11/27 06:07:54;;;;;;;11.97;11.07;;;3.30;99.90;;;;;;5053515;28;20285;-66
2021/11/27 06:10:20;;;;;;;11.83;10.93;;;3.30;99.90;;;;;;5053891;28;20254;-66
2021/11/27 06:12:45;;;;;;;11.37;10.60;;;3.30;99.90;;;;;;5034510;28;20728;-66
2021/11/27 06:15:11;;;;;;;11.93;11.07;;;3.30;99.90;;;;;;5033831;28;20187;-67
2021/11/27 06:17:36;;;;;;;12.67;11.53;;;3.20;99.90;;;;;;5034923;28;20183;-67
2021/11/27 06:20:03;;;;;;;12.13;11.07;;;3.20;99.90;;;;;;5033652;28;20266;-66
2021/11/27 06:22:28;;;;;;;12.50;11.50;;;3.10;99.90;;;;;;5050015;28;20186;-67
2021/11/27 06:24:54;;;;;;;13.10;12.20;;;3.10;99.90;;;;;;5053516;28;20163;-67
2021/11/27 06:27:20;;;;;;;12.90;11.90;;;3.10;99.90;;;;;;5036363;28;20208;-67
2021/11/27 06:29:45;;;;;;;12.53;11.70;;;3.10;99.90;;;;;;5015491;28;20211;-67
2021/11/27 06:32:12;;;;;;;14.30;13.00;;;3.00;99.90;;;;;;5047018;28;20640;-67
2021/11/27 06:34:41;;;;;;;15.50;14.40;;;3.00;99.90;;;;;;5053289;28;20175;-68
2021/11/27 06:37:07;;;;;;;14.07;12.97;;;3.00;99.90;;;;;;5040008;28;20191;-67
2021/11/27 06:39:35;;;;;;;13.73;12.43;;;3.10;99.90;;;;;;5033401;28;20191;-67
2021/11/27 06:42:01;;;;;;;13.20;12.10;;;3.10;99.90;;;;;;5044722;28;20644;-67
2021/11/27 06:44:27;;;;;;;12.67;11.57;;;3.20;99.90;;;;;;5053179;28;20201;-67
2021/11/27 06:46:53;;;;;;;12.60;11.53;;;3.20;99.90;;;;;;5041645;28;20206;-68
2021/11/27 06:49:19;;;;;;;13.20;12.00;;;3.30;99.90;;;;;;5033085;28;20188;-68
2021/11/27 06:51:44;;;;;;;13.10;11.77;;;3.30;99.90;;;;;;5041981;28;20599;-66
2021/11/27 06:54:10;;;;;;;11.43;10.43;;;3.40;99.90;;;;;;5034888;28;20206;-68
2021/11/27 06:56:36;;;;;;;13.07;11.77;;;3.50;99.90;;;;;;5044082;28;20182;-68
2021/11/27 06:59:01;;;;;;;13.37;12.07;;;3.60;99.90;;;;;;5032794;28;20195;-67
2021/11/27 07:01:27;;;;;;;13.63;11.37;;;3.60;99.90;;;;;;5039185;28;20182;-66
2021/11/27 07:03:53;;;;;;;11.40;10.40;;;3.60;99.90;;;;;;5050097;28;20254;-66
2021/11/27 07:06:18;;;;;;;12.23;10.93;;;3.70;99.90;;;;;;5044024;28;20795;-67
2021/11/27 07:08:44;;;;;;;12.50;11.23;;;3.70;99.90;;;;;;5041682;28;20230;-67
2021/11/27 07:11:10;;;;;;;12.67;11.37;;;3.70;99.90;;;;;;5033866;28;20180;-66
2021/11/27 07:13:35;;;;;;;11.43;10.30;;;3.70;99.90;;;;;;5033102;28;20254;-66
2021/11/27 07:16:01;;;;;;;12.17;10.93;;;3.70;99.90;;;;;;5051805;28;20231;-66
2021/11/27 07:18:27;;;;;;;11.80;10.80;;;3.70;99.90;;;;;;5052113;28;20198;-66
2021/11/27 07:20:53;;;;;;;11.53;10.50;;;3.60;99.90;;;;;;5037790;28;20573;-66
2021/11/27 07:23:18;;;;;;;12.70;11.47;;;3.60;99.90;;;;;;5032218;28;20174;-66
2021/11/27 07:25:46;;;;;;;11.23;10.23;;;3.60;99.90;;;;;;5045491;28;20660;-66
2021/11/27 07:28:11;;;;;;;12.00;11.10;;;3.60;99.90;;;;;;5051949;28;20225;-66
2021/11/27 07:30:38;;;;;;;11.73;10.60;;;3.60;99.90;;;;;;5039572;28;20704;-66
2021/11/27 07:33:04;;;;;;;12.07;10.93;;;3.60;99.90;;;;;;5047474;28;20179;-66
2021/11/27 07:35:30;;;;;;;12.33;11.03;;;3.60;99.90;;;;;;5041543;28;20180;-66
2021/11/27 07:37:55;;;;;;;12.60;11.50;;;3.50;99.90;;;;;;5030364;28;20258;-66
2021/11/27 07:40:22;;;;;;;12.33;11.23;;;3.50;99.90;;;;;;5040264;28;20190;-67
2021/11/27 07:42:48;;;;;;;11.97;10.80;;;3.50;99.90;;;;;;5033472;28;20197;-67
2021/11/27 07:45:16;;;;;;;11.33;10.23;;;3.50;99.90;;;;;;5048054;28;20648;-66
2021/11/27 07:47:42;;;;;;;13.40;11.50;;;3.40;99.90;;;;;;5051709;28;20232;-66
2021/11/27 07:50:09;;;;;;;11.63;10.63;;;3.40;99.90;;;;;;5027317;28;20183;-66
2021/11/27 07:52:34;;;;;;;12.60;11.40;;;3.50;99.90;;;;;;5031186;28;20167;-67
2021/11/27 07:55:00;;;;;;;11.37;10.37;;;3.50;99.90;;;;;;5036330;28;20317;-67
2021/11/27 07:57:26;;;;;;;11.67;10.63;;;3.50;99.90;;;;;;5051605;28;20654;-66
2021/11/27 07:59:51;;;;;;;12.60;11.50;;;3.50;99.90;;;;;;5031117;28;20222;-67
2021/11/27 08:02:17;;;;;;;12.00;11.00;;;3.50;99.90;;;;;;5031438;28;20260;-68
2021/11/27 08:04:42;;;;;;;11.60;10.50;;;3.50;99.90;;;;;;5032574;28;20310;-67
2021/11/27 08:07:08;;;;;;;13.00;11.13;;;3.50;99.90;;;;;;5051408;28;20205;-68
2021/11/27 08:09:34;;;;;;;12.67;11.50;;;3.50;99.90;;;;;;5051134;28;20190;-67
2021/11/27 08:12:00;;;;;;;12.23;11.07;;;3.60;99.90;;;;;;5050919;28;20182;-67
2021/11/27 08:14:31;;;;;;;12.10;11.10;;;3.60;99.90;;;;;;5051344;28;20171;-67
2021/11/27 08:17:00;;;;;;;11.10;10.30;;;3.60;99.90;;;;;;5031598;28;20191;-66
2021/11/27 08:19:28;;;;;;;12.90;11.70;;;3.60;99.90;;;;;;5031314;28;20199;-66
2021/11/27 08:21:54;;;;;;;12.30;11.30;;;3.70;99.90;;;;;;5049684;28;20190;-67
2021/11/27 08:24:19;;;;;;;12.73;11.57;;;3.70;99.90;;;;;;5050879;28;20538;-67
2021/11/27 08:26:45;;;;;;;17.60;13.57;;;3.70;99.90;;;;;;5032982;28;20206;-67
2021/11/27 08:29:11;;;;;;;12.93;11.93;;;3.80;99.90;;;;;;5073459;22;20314;-68
2021/11/27 08:31:36;;;;;;;11.83;10.70;;;3.90;99.90;;;;;;5069572;28;20178;-68
2021/11/27 08:34:03;;;;;;;12.70;11.63;;;4.10;99.90;;;;;;5071187;28;20177;-68
2021/11/27 08:36:29;;;;;;;12.87;11.43;;;4.40;99.90;;;;;;5071120;28;20554;-69
2021/11/27 08:38:54;;;;;;;12.30;11.00;;;5.00;99.90;;;;;;5079268;28;20189;-70
2021/11/27 08:41:20;;;;;;;12.97;11.67;;;5.60;99.90;;;;;;5077761;28;20178;-69
2021/11/27 08:43:45;;;;;;;12.30;11.07;;;6.30;99.90;;;;;;5071173;28;20239;-66
2021/11/27 08:46:11;;;;;;;10.83;9.93;;;7.20;99.90;;;;;;5084073;28;20234;-66
2021/11/27 08:48:37;;;;;;;8.43;7.80;;;8.00;99.90;;;;;;5091336;28;20193;-66
2021/11/27 08:51:11;;;;;;;8.10;7.40;;;8.70;99.90;;;;;;5080265;28;20174;-66
2021/11/27 08:53:37;;;;;;;7.60;7.10;;;9.30;99.90;;;;;;5071002;28;20170;-65
2021/11/27 08:56:06;;;;;;;8.30;7.60;;;9.50;99.90;;;;;;5082587;28;20174;-66
2021/11/27 08:58:33;;;;;;;7.63;7.20;;;9.10;99.90;;;;;;5091298;28;20189;-65
2021/11/27 09:00:58;;;;;;;7.57;7.17;;;8.50;99.90;;;;;;5081056;28;20180;-65
2021/11/27 09:03:24;;;;;;;7.30;6.80;;;7.80;99.90;;;;;;5070837;28;20174;-68
2021/11/27 09:05:50;;;;;;;8.47;7.87;;;7.60;99.90;;;;;;5080369;28;20180;-69
2021/11/27 09:08:16;;;;;;;8.70;8.13;;;7.70;99.90;;;;;;5071739;28;20218;-68
2021/11/27 09:10:42;;;;;;;7.77;7.20;;;8.00;99.90;;;;;;5078238;28;20169;-65
2021/11/27 09:13:08;;;;;;;8.60;7.20;;;8.20;99.90;;;;;;5090935;28;20657;-65
2021/11/27 09:15:33;;;;;;;7.70;7.00;;;8.60;99.90;;;;;;5084348;28;20167;-66
2021/11/27 09:17:59;;;;;;;7.70;7.20;;;9.00;99.90;;;;;;5070924;28;20181;-67
2021/11/27 09:20:25;;;;;;;7.60;7.10;;;8.80;99.90;;;;;;5075461;28;20214;-66
2021/11/27 09:22:51;;;;;;;9.13;8.33;;;8.40;99.90;;;;;;5090474;28;20173;-67
2021/11/27 09:25:17;;;;;;;9.03;8.33;;;8.20;99.90;;;;;;5086920;28;20174;-67
2021/11/27 09:27:42;;;;;;;8.87;8.00;;;8.20;99.90;;;;;;5070634;28;20205;-68
2021/11/27 09:30:11;;;;;;;8.73;8.07;;;8.20;99.90;;;;;;5072688;28;20214;-68
2021/11/27 09:32:36;;;;;;;7.13;6.73;;;8.10;99.90;;;;;;5090633;28;20165;-67
2021/11/27 09:35:04;;;;;;;7.80;7.20;;;8.30;99.90;;;;;;5088937;28;20547;-68
2021/11/27 09:37:30;;;;;;;8.43;7.73;;;8.20;99.90;;;;;;5080341;28;20544;-68
2021/11/27 09:39:55;;;;;;;7.83;7.20;;;8.30;99.90;;;;;;5094040;28;20193;-65
2021/11/27 09:42:21;;;;;;;10.20;7.50;;;8.70;99.90;;;;;;5075085;28;20586;-70
2021/11/27 09:44:55;;;;;;;7.53;6.87;;;9.10;99.90;;;;;;5074226;28;20170;-69
2021/11/27 09:47:20;;;;;;;7.60;6.83;;;9.70;99.90;;;;;;5093624;28;20193;-69
2021/11/27 09:49:47;;;;;;;7.80;7.03;;;10.00;99.90;;;;;;5094261;28;20188;-66
2021/11/27 09:52:14;;;;;;;6.60;6.20;;;10.40;99.90;;;;;;5091057;28;20178;-66
2021/11/27 09:54:40;;;;;;;6.80;6.23;;;10.60;99.90;;;;;;5053214;28;20189;-66
2021/11/27 09:57:09;;;;;;;6.83;6.40;;;10.70;99.90;;;;;;5082508;28;20219;-66
2021/11/27 09:59:37;;;;;;;6.60;6.10;;;10.70;99.90;;;;;;5054496;28;20237;-67
2021/11/27 10:02:07;;;;;;;7.00;6.50;;;10.80;99.90;;;;;;5053925;28;20167;-65
2021/11/27 10:04:33;;;;;;;6.90;6.17;;;10.70;99.90;;;;;;5083352;28;20178;-66
2021/11/27 10:06:59;;;;;;;6.87;6.33;;;10.60;99.90;;;;;;5095299;28;20208;-63
2021/11/27 10:09:26;;;;;;;8.43;6.17;;;10.50;99.90;;;;;;5082508;28;20190;-66
2021/11/27 10:11:54;;;;;;;6.33;5.93;;;10.40;99.90;;;;;;5072797;28;20175;-65
2021/11/27 10:14:21;;;;;;;6.70;6.20;;;10.10;99.90;;;;;;5083887;28;20642;-67
2021/11/27 10:17:29;;;;;;;7.67;6.80;;;9.90;99.90;;;;;;5093828;28;20169;-67
2021/11/27 10:20:05;;;;;;;7.47;6.73;;;9.50;99.90;;;;;;5076874;28;20201;-68
2021/11/27 10:22:47;;;;;;;8.50;7.80;;;9.00;99.90;;;;;;5073683;28;20223;-66
2021/11/27 10:25:25;;;;;;;7.40;6.90;;;8.40;99.90;;;;;;5092350;28;20172;-66
2021/11/27 10:27:59;;;;;;;8.57;7.77;;;8.00;99.90;;;;;;5080870;28;20209;-67
2021/11/27 10:30:24;;;;;;;7.80;7.30;;;7.50;99.90;;;;;;5073701;28;20182;-66
2021/11/27 10:32:50;;;;;;;8.67;8.03;;;7.10;99.90;;;;;;5088170;28;20188;-67
2021/11/27 10:35:20;;;;;;;10.93;8.10;;;6.80;99.90;;;;;;5087557;28;20174;-67
2021/11/27 10:37:52;;;;;;;8.87;8.37;;;6.60;99.90;;;;;;5073364;28;20262;-65
2021/11/27 10:40:19;;;;;;;9.10;8.20;;;6.70;99.90;;;;;;5078828;28;20282;-66
2021/11/27 10:42:49;;;;;;;7.60;6.97;;;6.90;99.90;;;;;;5092646;28;20178;-65
2021/11/27 10:45:18;;;;;;;7.50;6.90;;;7.20;99.90;;;;;;5087216;28;20186;-65
2021/11/27 10:47:44;;;;;;;7.57;6.90;;;7.50;99.90;;;;;;5072482;28;20205;-66
2021/11/27 10:50:18;;;;;;;8.63;7.03;;;8.00;99.90;;;;;;5077100;28;20236;-65
2021/11/27 10:52:44;;;;;;;7.03;6.53;;;8.50;99.90;;;;;;5092872;28;20222;-68
2021/11/27 10:55:29;;;;;;;7.13;6.57;;;9.10;99.90;;;;;;5087902;28;20663;-66
2021/11/27 10:58:00;;;;;;;6.10;5.70;;;9.70;99.90;;;;;;5072764;28;20663;-66
2021/11/27 11:00:29;;;;;;;6.50;5.90;;;10.10;99.90;;;;;;5079020;28;20227;-66
2021/11/27 11:02:56;;;;;;;6.10;5.70;;;10.30;99.90;;;;;;5092406;28;20179;-66
2021/11/27 11:05:39;;;;;;;6.00;5.37;;;10.40;99.90;;;;;;5086490;28;20605;-65
2021/11/27 11:08:07;;;;;;;6.73;6.33;;;10.30;99.90;;;;;;5072316;28;20209;-65
2021/11/27 11:10:36;;;;;;;6.70;6.20;;;10.00;99.90;;;;;;5079536;28;20173;-66
2021/11/27 11:13:11;;;;;;;6.73;6.23;;;9.80;99.90;;;;;;5092184;28;20162;-65
2021/11/27 11:15:38;;;;;;;9.33;6.13;;;10.10;99.90;;;;;;5084276;28;20180;-66
2021/11/27 11:18:17;;;;;;;5.83;5.43;;;10.20;99.90;;;;;;5091669;28;20173;-65
2021/11/27 11:20:58;;;;;;;5.97;5.33;;;10.70;99.90;;;;;;5084018;28;20239;-66
2021/11/27 11:23:33;;;;;;;5.90;5.50;;;11.00;99.90;;;;;;5072000;28;20200;-65
2021/11/27 11:26:04;;;;;;;6.33;5.77;;;11.20;99.90;;;;;;5080982;28;20169;-67
2021/11/27 11:28:48;;;;;;;6.13;5.53;;;11.80;99.90;;;;;;5092092;28;20220;-66
2021/11/27 11:31:23;;;;;;;5.50;5.10;;;12.30;99.90;;;;;;5080727;28;20178;-66
2021/11/27 11:34:00;;;;;;;5.20;4.90;;;12.70;99.90;;;;;;5071764;28;20177;-67
2021/11/27 11:36:26;;;;;;;6.20;5.60;;;12.50;99.90;;;;;;5074540;28;20178;-66
2021/11/27 11:38:57;;;;;;;6.27;5.67;;;12.30;99.90;;;;;;5089271;28;20682;-65
2021/11/27 11:41:25;;;;;;;7.47;5.80;;;12.40;99.90;;;;;;5079430;28;20181;-66
2021/11/27 11:43:52;;;;;;;6.43;6.03;;;12.40;99.90;;;;;;5071463;28;20253;-66
2021/11/27 11:46:19;;;;;;;6.90;5.20;;;12.10;99.90;;;;;;5084102;28;20185;-65
2021/11/27 11:48:56;;;;;;;7.47;5.30;;;11.90;99.90;;;;;;5091817;28;20238;-66
2021/11/27 11:51:59;;;;;;;5.53;5.13;;;11.80;99.90;;;;;;5079217;28;20260;-66
2021/11/27 11:54:29;;;;;;;5.80;5.30;;;11.70;99.90;;;;;;5071519;28;20193;-66
2021/11/27 11:57:15;;;;;;;6.50;6.00;;;11.70;99.90;;;;;;5082642;28;20181;-66
2021/11/27 11:59:41;;;;;;;6.87;6.27;;;11.30;99.90;;;;;;5089532;28;20233;-66
2021/11/27 12:02:24;;;;;;;6.47;5.90;;;11.20;99.90;;;;;;5072869;28;20182;-65
2021/11/27 12:05:11;;;;;;;6.93;6.50;;;11.40;99.90;;;;;;5071553;28;20174;-67
2021/11/27 12:10:34;;;;;;;9.73;6.00;;;11.20;99.90;;;;;;5055978;28;20202;-65
2021/11/27 12:13:05;;;;;;;5.63;5.23;;;11.40;99.90;;;;;;5091414;28;20204;-65
2021/11/27 12:15:42;;;;;;;5.80;5.33;;;11.40;99.90;;;;;;5086736;28;20170;-65
2021/11/27 12:18:16;;;;;;;6.83;6.07;;;11.50;99.90;;;;;;5073395;28;20239;-66
2021/11/27 12:21:01;;;;;;;6.83;6.23;;;11.50;99.90;;;;;;5069629;28;20178;-66
2021/11/27 12:23:37;;;;;;;7.17;5.67;;;11.60;99.90;;;;;;5077763;28;20188;-65
2021/11/27 12:26:09;;;;;;;6.73;6.03;;;11.50;99.90;;;;;;5089312;28;20572;-66
2021/11/27 12:28:36;;;;;;;5.60;5.30;;;11.30;99.90;;;;;;5082186;28;20205;-65
2021/11/27 12:31:09;;;;;;;6.20;5.60;;;11.30;99.90;;;;;;5071380;28;20174;-66
2021/11/27 12:33:53;;;;;;;5.70;5.20;;;11.30;99.90;;;;;;5078796;28;20280;-65
2021/11/27 12:36:24;;;;;;;7.70;5.40;;;11.40;99.90;;;;;;5091441;28;20166;-67
2021/11/27 12:39:15;;;;;;;5.80;5.40;;;11.70;99.90;;;;;;5087649;28;20275;-64
2021/11/27 12:41:45;;;;;;;6.00;5.50;;;11.70;99.90;;;;;;5090913;28;20256;-66
2021/11/27 12:44:13;;;;;;;5.70;5.40;;;11.80;99.90;;;;;;5078944;28;20181;-66
2021/11/27 12:46:41;;;;;;;5.93;5.60;;;11.90;99.90;;;;;;5070778;28;20202;-66
2021/11/27 12:49:07;;;;;;;5.73;5.33;;;12.00;99.90;;;;;;5082833;28;20197;-66
2021/11/27 12:51:32;;;;;;;5.77;5.37;;;11.80;99.90;;;;;;5091166;28;20466;-66
2021/11/27 12:53:58;;;;;;;6.83;6.20;;;11.40;99.90;;;;;;5080724;28;20256;-66
2021/11/27 12:56:25;;;;;;;6.70;6.20;;;11.00;99.90;;;;;;5071279;28;20178;-66
2021/11/27 12:58:50;;;;;;;7.03;6.63;;;10.80;99.90;;;;;;5079160;28;20321;-68